Time;durP1;ratioP1;P1;durP2;ratioP2;P2;SDS_P1;SDS_P2;PMS_P1;PMS_P2;Temp;Humidity;BMP_temperature;BMP_pressure;BME280_temperature;BME280_humidity;BME280_pressure;Samples;Min_cycle;Max_cycle;Signal;HPM_P1;HPM_P2
2022/09/18 00:01:04;;;;;;;1.50;0.50;;;;;;;12.45;100.00;100174.59;5098423;28;20116;-58
2022/09/18 00:03:45;;;;;;;1.83;0.52;;;;;;;12.57;100.00;100177.81;5098240;28;20052;-58
2022/09/18 00:06:41;;;;;;;2.38;0.60;;;;;;;12.57;100.00;100176.03;5096626;28;20059;-58
2022/09/18 00:09:26;;;;;;;0.88;0.57;;;;;;;12.58;100.00;100174.28;5098617;28;20086;-58
2022/09/18 00:12:14;;;;;;;2.83;0.50;;;;;;;12.57;100.00;100177.81;5099882;28;20394;-58
2022/09/18 00:18:02;;;;;;;0.63;0.50;;;;;;;12.59;100.00;100176.00;5095087;28;20040;-58
2022/09/18 00:20:42;;;;;;;0.57;0.50;;;;;;;12.59;100.00;100165.53;5101512;28;20048;-58
2022/09/18 00:23:20;;;;;;;1.98;1.05;;;;;;;12.64;100.00;100155.78;5103414;28;20370;-58
2022/09/18 00:26:04;;;;;;;5.75;1.95;;;;;;;12.76;100.00;100152.84;5075862;28;20123;-59
2022/09/18 00:28:44;;;;;;;1.92;1.10;;;;;;;12.83;100.00;100154.38;5098772;28;20074;-58
2022/09/18 00:31:42;;;;;;;1.33;0.85;;;;;;;12.85;100.00;100157.81;5101385;28;20047;-58
2022/09/18 00:34:24;;;;;;;0.50;0.50;;;;;;;12.87;100.00;100149.91;5099094;28;20263;-59
2022/09/18 00:37:13;;;;;;;0.40;0.40;;;;;;;12.98;100.00;100131.25;5099716;28;20059;-59
2022/09/18 00:39:52;;;;;;;0.40;0.40;;;;;;;13.11;100.00;100122.13;5098604;28;20062;-59
2022/09/18 00:42:37;;;;;;;0.43;0.40;;;;;;;13.25;100.00;100109.44;5099598;28;20157;-58
2022/09/18 00:45:43;;;;;;;0.57;0.50;;;;;;;13.37;100.00;100114.38;5099268;28;20360;-58
2022/09/18 00:48:29;;;;;;;1.27;0.60;;;;;;;13.29;100.00;100116.38;5098949;28;20070;-60
2022/09/18 00:51:11;;;;;;;;;;;;;;;13.32;100.00;100129.38;5073145;28;20056;-59
2022/09/18 00:54:03;;;;;;;3.15;0.90;;;;;;;12.85;100.00;100094.88;5075644;28;19991;-60
2022/09/18 00:56:59;;;;;;;;;;;;;;;12.90;100.00;100149.81;5100879;28;20049;-58
2022/09/18 00:59:39;;;;;;;1.77;0.40;;;;;;;12.75;100.00;100140.59;5098865;28;19958;-59
2022/09/18 01:02:22;;;;;;;2.58;0.40;;;;;;;12.75;100.00;100130.13;5101045;28;20055;-58
2022/09/18 01:05:17;;;;;;;0.68;0.50;;;;;;;12.59;100.00;100097.38;5099962;28;20060;-59
2022/09/18 01:08:10;;;;;;;;;;;;;;;12.80;100.00;100128.22;5100397;28;20273;-60
2022/09/18 01:11:08;;;;;;;0.90;0.50;;;;;;;12.77;100.00;100117.84;5099636;28;19942;-59
2022/09/18 01:14:22;;;;;;;0.75;0.50;;;;;;;12.80;100.00;100128.22;5101296;28;20051;-59
2022/09/18 01:17:14;;;;;;;0.40;0.40;;;;;;;12.78;100.00;100119.56;5097068;28;20070;-60
2022/09/18 01:20:27;;;;;;;0.93;0.50;;;;;;;12.74;100.00;100104.81;5102420;28;20119;-60
2022/09/18 01:23:31;;;;;;;0.55;0.55;;;;;;;12.87;100.00;100107.94;5101601;28;20226;-59
2022/09/18 01:26:39;;;;;;;1.65;0.50;;;;;;;12.85;100.00;100121.09;5099984;28;20119;-59
2022/09/18 01:29:51;;;;;;;1.02;0.70;;;;;;;12.84;100.00;100119.38;5065421;28;20039;-60
2022/09/18 01:32:51;;;;;;;1.00;0.60;;;;;;;12.65;100.00;100066.59;5013749;28;20053;-59
2022/09/18 01:35:38;;;;;;;1.48;0.70;;;;;;;12.87;100.00;100085.19;5045728;28;20116;-59
2022/09/18 01:38:20;;;;;;;1.15;0.73;;;;;;;12.93;100.00;100087.66;5099466;28;20051;-60
2022/09/18 01:41:18;;;;;;;2.58;0.80;;;;;;;12.84;100.00;100072.19;5097385;28;20123;-59
2022/09/18 01:44:08;;;;;;;1.45;0.80;;;;;;;12.87;100.00;100069.47;5078194;28;20177;-62
2022/09/18 01:47:22;;;;;;;1.77;0.95;;;;;;;12.88;100.00;100071.22;5097970;28;20059;-61
2022/09/18 01:50:09;;;;;;;1.67;1.00;;;;;;;13.01;100.00;100073.47;5099770;28;20199;-63
2022/09/18 01:53:01;;;;;;;1.05;0.70;;;;;;;13.10;100.00;100074.06;5102577;28;20059;-60
2022/09/18 01:56:04;;;;;;;0.95;0.80;;;;;;;13.04;100.00;100062.88;5102840;28;20054;-61
2022/09/18 01:59:09;;;;;;;1.65;0.82;;;;;;;13.12;100.00;100066.13;5062547;28;20101;-60
2022/09/18 02:02:07;;;;;;;0.70;0.70;;;;;;;13.25;100.00;100058.75;5067644;28;20091;-60
2022/09/18 02:05:06;;;;;;;1.58;0.80;;;;;;;13.35;100.00;100054.97;5104942;28;20093;-59
2022/09/18 02:08:06;;;;;;;1.15;0.75;;;;;;;13.34;100.00;100046.22;5103083;28;20091;-61
2022/09/18 02:10:50;;;;;;;0.82;0.77;;;;;;;13.43;100.00;100044.22;5101912;28;20051;-60
2022/09/18 02:13:32;;;;;;;1.17;0.90;;;;;;;13.48;100.00;100037.94;5104098;28;20058;-59
2022/09/18 02:16:20;;;;;;;0.93;0.70;;;;;;;13.45;100.00;100027.50;5100522;28;20421;-60
2022/09/18 02:19:09;;;;;;;2.33;0.80;;;;;;;13.43;100.00;100033.72;5100980;28;20071;-61
2022/09/18 02:21:59;;;;;;;1.42;0.70;;;;;;;13.42;100.00;100026.75;5072930;28;20056;-60
2022/09/18 02:24:47;;;;;;;1.27;0.80;;;;;;;13.41;100.00;100025.06;5072829;28;20096;-60
2022/09/18 02:27:39;;;;;;;4.43;1.15;;;;;;;13.31;100.00;100009.59;5102714;28;20122;-60
2022/09/18 02:30:22;;;;;;;2.72;1.10;;;;;;;13.37;100.00;100019.88;5105096;28;20051;-60
2022/09/18 02:33:07;;;;;;;2.42;0.95;;;;;;;13.40;100.00;100007.56;5104693;28;20051;-60
2022/09/18 02:36:16;;;;;;;1.13;0.75;;;;;;;13.34;100.00;99995.53;5092953;28;20278;-60
2022/09/18 02:39:16;;;;;;;4.68;0.90;;;;;;;13.33;100.00;100010.41;5105664;28;20052;-59
2022/09/18 02:42:25;;;;;;;3.30;0.90;;;;;;;13.25;100.00;100009.75;5080524;28;20112;-60
2022/09/18 02:45:28;;;;;;;2.65;0.95;;;;;;;13.25;100.00;100009.75;5103771;28;20052;-59
2022/09/18 02:48:30;;;;;;;1.67;1.00;;;;;;;13.32;100.00;100016.56;5077739;28;20055;-60
2022/09/18 02:51:17;;;;;;;2.70;0.90;;;;;;;13.50;100.00;100022.13;5078658;28;20125;-60
2022/09/18 02:54:12;;;;;;;3.67;1.10;;;;;;;13.73;100.00;100037.16;5106107;28;20299;-60
2022/09/18 02:57:00;;;;;;;1.10;1.00;;;;;;;13.67;100.00;99990.94;5101911;28;20170;-59
2022/09/18 02:59:52;;;;;;;1.60;1.10;;;;;;;13.92;100.00;100019.84;5101765;28;20267;-60
2022/09/18 03:02:49;;;;;;;1.92;1.00;;;;;;;13.97;100.00;100015.28;5101376;28;20120;-59
2022/09/18 03:05:28;;;;;;;2.63;1.10;;;;;;;13.91;100.00;100015.50;5100450;28;20043;-59
2022/09/18 03:08:10;;;;;;;1.80;1.20;;;;;;;13.82;100.00;100016.66;5067405;28;20049;-60
2022/09/18 03:10:49;;;;;;;1.20;0.90;;;;;;;13.62;100.00;99976.25;5101525;28;20595;-59
2022/09/18 03:14:12;;;;;;;2.15;1.00;;;;;;;13.84;100.00;99992.13;5039664;28;20052;-61
2022/09/18 03:17:01;;;;;;;2.28;0.90;;;;;;;13.89;100.00;99979.69;5099886;28;20052;-59
2022/09/18 03:19:52;;;;;;;1.90;1.20;;;;;;;13.88;100.00;99964.84;5103518;28;20271;-60
2022/09/18 03:22:30;;;;;;;1.55;1.08;;;;;;;13.88;100.00;99973.59;5098656;28;20313;-59
2022/09/18 03:25:17;;;;;;;2.40;1.10;;;;;;;13.86;100.00;99958.81;5102384;28;20325;-59
2022/09/18 03:28:02;;;;;;;2.17;1.10;;;;;;;13.90;100.00;99955.13;5096972;28;20306;-59
2022/09/18 03:30:55;;;;;;;2.00;1.03;;;;;;;13.91;100.00;99946.38;5102503;28;20039;-59
2022/09/18 03:33:43;;;;;;;1.65;1.25;;;;;;;14.00;100.00;99946.03;5105360;28;20294;-60
2022/09/18 03:36:44;;;;;;;3.30;1.20;;;;;;;14.13;100.00;99947.31;5079007;28;20318;-59
2022/09/18 03:39:28;;;;;;;2.03;1.10;;;;;;;14.14;100.00;99933.25;5102033;28;20317;-60
2022/09/18 03:42:18;;;;;;;2.33;1.23;;;;;;;14.19;100.00;99931.31;5104311;28;20257;-60
2022/09/18 03:44:58;;;;;;;4.10;1.10;;;;;;;14.40;100.00;99923.53;5100024;28;20070;-59
2022/09/18 03:50:59;;;;;;;3.23;1.67;;;;;;;14.46;100.00;99925.97;5101236;28;20285;-59
2022/09/18 03:54:02;;;;;;;3.30;1.93;;;;;;;14.51;100.00;99916.13;5078053;28;20306;-60
2022/09/18 03:59:55;;;;;;;2.17;1.30;;;;;;;14.62;100.00;99910.47;5102856;28;20271;-60
2022/09/18 04:02:56;;;;;;;5.27;2.50;;;;;;;14.69;100.00;99908.47;5103697;28;20358;-59
2022/09/18 04:05:34;;;;;;;3.35;1.80;;;;;;;14.79;100.00;99896.69;5058203;28;20381;-59
2022/09/18 04:08:22;;;;;;;5.83;2.17;;;;;;;14.85;100.00;99889.41;5103853;28;20048;-61
2022/09/18 04:11:10;;;;;;;3.00;2.03;;;;;;;14.71;100.00;99859.31;5098135;28;20934;-60
2022/09/18 04:13:54;;;;;;;2.53;1.70;;;;;;;14.84;99.40;99886.84;5030489;28;20302;-62
2022/09/18 04:17:02;;;;;;;4.93;3.00;;;;;;;14.89;99.37;99900.66;5073152;28;20285;-59
2022/09/18 04:19:52;;;;;;;4.73;2.93;;;;;;;14.84;98.90;99928.91;5075350;28;20311;-58
2022/09/18 04:22:34;;;;;;;2.53;2.10;;;;;;;14.64;99.37;99933.16;5076865;28;20286;-59
2022/09/18 04:25:15;;;;;;;3.03;2.43;;;;;;;14.48;100.00;99923.25;5074016;28;20328;-59
2022/09/18 04:27:58;;;;;;;6.13;3.43;;;;;;;14.37;100.00;99915.78;5077118;28;20293;-60
2022/09/18 04:30:51;;;;;;;7.73;4.57;;;;;;;14.43;100.00;99907.69;5102915;28;20283;-59
2022/09/18 04:33:57;;;;;;;4.27;2.13;;;;;;;14.56;100.00;99901.06;5097602;28;20289;-60
2022/09/18 04:36:42;;;;;;;3.93;2.30;;;;;;;14.66;100.00;99914.72;5101733;28;20293;-60
2022/09/18 04:39:20;;;;;;;3.90;2.00;;;;;;;14.75;100.00;99924.00;5101009;28;20514;-60
2022/09/18 04:42:01;;;;;;;4.35;1.77;;;;;;;14.81;100.00;99923.78;5060465;28;20102;-59
2022/09/18 04:44:53;;;;;;;2.50;1.97;;;;;;;14.88;99.68;99930.53;5099123;28;20103;-60
2022/09/18 04:47:52;;;;;;;6.13;2.50;;;;;;;14.83;99.63;99932.47;5101369;28;20282;-60
2022/09/18 04:50:34;;;;;;;3.83;2.27;;;;;;;14.96;99.63;99944.22;5099619;28;20282;-60
2022/09/18 04:59:05;;;;;;;15.00;10.03;;;;;;;15.21;99.71;99948.50;5081041;28;20297;-60
2022/09/18 05:01:50;;;;;;;5.30;3.73;;;;;;;15.30;99.85;99938.47;5101162;28;20277;-61
2022/09/18 05:04:39;;;;;;;8.77;5.73;;;;;;;15.42;99.93;99931.81;5100176;28;20281;-60
2022/09/18 05:07:14;;;;;;;10.50;6.13;;;;;;;15.41;99.72;99932.75;5041992;28;20294;-60
2022/09/18 05:10:24;;;;;;;4.77;3.43;;;;;;;15.49;99.27;99933.28;5050719;28;20316;-60
2022/09/18 05:13:06;;;;;;;8.97;7.03;;;;;;;15.58;99.57;99920.66;5050270;28;20276;-60
2022/09/18 05:15:44;;;;;;;11.38;7.50;;;;;;;15.67;99.67;99896.53;5050877;28;20287;-60
2022/09/18 05:21:10;;;;;;;5.77;2.70;;;;;;;15.79;99.60;99882.88;5051357;28;20296;-61
2022/09/18 05:23:51;;;;;;;2.43;2.07;;;;;;;15.82;99.73;99874.84;5033429;28;20341;-59
2022/09/18 05:26:58;;;;;;;2.87;1.93;;;;;;;16.00;100.00;99902.16;5034858;28;20342;-60
2022/09/18 05:29:44;;;;;;;4.23;2.33;;;;;;;15.91;99.73;99903.41;5053507;28;20307;-60
2022/09/18 05:32:20;;;;;;;4.20;2.50;;;;;;;15.89;99.68;99915.78;5055778;28;20597;-61
2022/09/18 05:37:54;;;;;;;7.13;4.00;;;;;;;15.74;99.80;99892.75;5054227;28;20397;-60
2022/09/18 05:40:40;;;;;;;8.30;3.40;;;;;;;15.60;99.76;99872.28;5054322;28;20258;-60
2022/09/18 05:43:23;;;;;;;12.63;3.37;;;;;;;15.64;100.00;99878.25;5054001;28;20549;-59
2022/09/18 05:49:05;;;;;;;5.37;3.10;;;;;;;15.62;100.00;99874.81;5055012;28;20354;-59
2022/09/18 05:52:13;;;;;;;6.20;2.63;;;;;;;15.76;100.00;99872.47;5054853;28;20604;-60
2022/09/18 05:55:14;;;;;;;6.47;3.33;;;;;;;15.84;100.00;99854.56;5055277;28;20364;-60
2022/09/18 05:58:23;;;;;;;8.07;4.10;;;;;;;16.01;100.00;99845.03;5054083;28;20152;-61
2022/09/18 06:01:06;;;;;;;6.60;3.80;;;;;;;16.20;100.00;99851.19;5053302;28;20283;-62
2022/09/18 06:03:53;;;;;;;8.53;4.17;;;;;;;16.43;100.00;99844.00;5051704;28;20288;-60
2022/09/18 06:06:46;;;;;;;32.37;22.47;;;;;;;16.63;100.00;99832.50;5033772;28;20275;-61
2022/09/18 06:09:20;;;;;;;17.60;12.80;;;;;;;16.69;100.00;99838.31;5103863;28;20329;-62
2022/09/18 06:12:08;;;;;;;14.53;12.43;;;;;;;16.68;100.00;99849.78;5104140;28;20299;-61
2022/09/18 06:14:53;;;;;;;7.43;6.17;;;;;;;16.69;100.00;99843.56;5100529;28;20358;-62
2022/09/18 06:17:35;;;;;;;10.13;6.53;;;;;;;16.72;100.00;99838.16;5101201;28;20320;-60
2022/09/18 06:20:17;;;;;;;9.77;4.97;;;;;;;16.72;100.00;99843.41;5103436;28;20313;-61
2022/09/18 06:23:02;;;;;;;11.67;5.70;;;;;;;16.74;100.00;99833.66;5059750;28;20283;-60
2022/09/18 06:25:45;;;;;;;9.07;5.67;;;;;;;16.72;100.00;99827.59;5104967;28;20338;-61
2022/09/18 06:28:18;;;;;;;11.68;6.20;;;;;;;16.76;100.00;99834.44;5102136;28;20334;-61
2022/09/18 06:31:03;;;;;;;8.32;6.30;;;;;;;16.69;100.00;99827.75;5101799;28;20047;-60
2022/09/18 06:33:59;;;;;;;8.03;5.50;;;;;;;16.75;100.00;99838.03;5105222;28;20287;-61
2022/09/18 06:36:52;;;;;;;11.03;6.07;;;;;;;16.77;100.00;99828.25;5078268;28;20289;-61
2022/09/18 06:42:22;;;;;;;12.30;5.45;;;;;;;16.65;100.00;99794.56;5103286;28;20293;-60
2022/09/18 06:45:07;;;;;;;9.70;5.43;;;;;;;16.91;100.00;99832.03;5103873;28;20935;-61
2022/09/18 06:47:54;;;;;;;8.10;5.23;;;;;;;16.91;100.00;99826.75;5103029;28;20285;-61
2022/09/18 06:50:38;;;;;;;8.37;5.00;;;;;;;16.85;100.00;99838.47;5102728;28;20305;-61
2022/09/18 06:53:22;;;;;;;7.80;5.43;;;;;;;16.73;100.00;99829.31;5063299;28;20313;-60
2022/09/18 06:58:59;;;;;;;8.63;4.83;;;;;;;16.71;100.00;99847.00;5102279;28;20044;-61
2022/09/18 07:05:21;;;;;;;9.83;5.83;;;;;;;16.70;100.00;99845.31;5058445;28;20295;-61
2022/09/18 07:15:34;;;;;;;6.40;5.07;;;;;;;16.77;100.00;99852.00;5099833;28;20350;-60
2022/09/18 07:18:13;;;;;;;9.00;6.00;;;;;;;16.83;100.00;99855.31;5064926;28;20287;-62
2022/09/18 07:20:59;;;;;;;6.43;5.30;;;;;;;16.83;100.00;99844.75;5100092;28;20596;-61
2022/09/18 07:24:05;;;;;;;9.73;5.30;;;;;;;16.81;100.00;99826.34;5101849;28;20302;-60
2022/09/18 07:27:06;;;;;;;10.87;5.43;;;;;;;16.80;100.00;99822.84;5101029;28;20289;-60
2022/09/18 07:30:18;;;;;;;7.40;5.03;;;;;;;16.78;100.00;99829.97;5015876;28;20283;-61
2022/09/18 07:36:16;;;;;;;8.87;5.37;;;;;;;16.77;100.00;99830.88;5050438;28;20055;-61
2022/09/18 07:39:09;;;;;;;7.03;5.30;;;;;;;16.77;100.00;99830.88;5016535;28;20308;-62
2022/09/18 07:41:51;;;;;;;11.17;4.23;;;;;;;16.75;100.00;99819.56;5048422;28;20057;-61
2022/09/18 07:44:39;;;;;;;10.67;4.47;;;;;;;16.80;100.00;99820.22;5048322;28;20563;-61
2022/09/18 07:47:31;;;;;;;8.00;3.73;;;;;;;16.85;100.00;99827.03;5050152;28;20288;-61
2022/09/18 07:50:14;;;;;;;8.75;5.50;;;;;;;16.52;100.00;99772.31;5019065;28;20303;-61
2022/09/18 07:53:04;;;;;;;13.73;4.47;;;;;;;16.81;100.00;99808.72;5006934;28;20084;-61
2022/09/18 07:55:54;;;;;;;8.57;3.40;;;;;;;16.88;100.00;99821.63;5050028;28;20288;-62
2022/09/18 07:58:46;;;;;;;6.60;3.83;;;;;;;16.86;100.00;99828.75;5018797;28;20339;-61
2022/09/18 08:01:30;;;;;;;10.63;3.90;;;;;;;16.85;100.00;99832.31;5073978;28;20286;-60
2022/09/18 08:07:22;;;;;;;8.07;3.53;;;;;;;16.76;100.00;99817.75;5080114;28;20289;-62
2022/09/18 08:10:11;;;;;;;9.77;3.60;;;;;;;16.67;100.00;99813.78;5102528;28;20352;-62
2022/09/18 08:12:49;;;;;;;8.30;3.80;;;;;;;16.63;100.00;99816.66;5102537;28;20293;-60
2022/09/18 08:15:26;;;;;;;11.10;5.53;;;;;;;16.59;100.00;99823.84;5099413;28;20281;-61
2022/09/18 08:21:11;;;;;;;8.13;5.67;;;;;;;16.51;100.00;99839.19;5103987;28;20045;-62
2022/09/18 08:24:06;;;;;;;6.83;3.77;;;;;;;16.46;100.00;99843.84;5099477;28;20305;-61
2022/09/18 08:27:02;;;;;;;10.17;3.77;;;;;;;16.45;100.00;99839.47;5102774;28;20354;-61
2022/09/18 08:29:50;;;;;;;6.87;4.03;;;;;;;16.38;100.00;99845.03;5105100;28;20301;-61
2022/09/18 08:35:41;;;;;;;6.10;4.43;;;;;;;16.31;100.00;99838.34;5045896;28;20293;-61
2022/09/18 08:38:24;;;;;;;8.00;5.93;;;;;;;16.26;100.00;99829.81;5070295;28;20283;-61
2022/09/18 08:41:40;;;;;;;18.30;15.00;;;;;;;16.23;100.00;99835.22;5052891;28;20445;-62
2022/09/18 08:44:39;;;;;;;36.47;32.77;;;;;;;16.20;100.00;99839.75;5038481;28;20294;-60
2022/09/18 08:47:42;;;;;;;36.53;32.57;;;;;;;16.20;100.00;99848.56;5070649;28;20321;-61
2022/09/18 08:50:31;;;;;;;41.97;37.43;;;;;;;16.08;100.00;99830.66;5069486;28;20348;-61
2022/09/18 08:53:50;;;;;;;48.13;37.17;;;;;;;16.14;100.00;99840.91;5035714;28;20325;-62
2022/09/18 08:59:44;;;;;;;19.57;11.13;;;;;;;16.09;100.00;99837.63;5028614;28;20285;-60
2022/09/18 09:02:36;;;;;;;14.83;10.20;;;;;;;16.04;100.00;99829.94;5030034;28;20276;-61
2022/09/18 09:05:31;;;;;;;19.17;13.13;;;;;;;15.84;100.00;99793.94;5029717;28;20360;-61
2022/09/18 09:11:47;;;;;;;14.30;10.53;;;;;;;15.98;100.00;99829.38;4988581;28;20045;-60
2022/09/18 09:14:48;;;;;;;29.70;22.77;;;;;;;15.79;100.00;99798.56;5008576;28;20491;-60
2022/09/18 09:17:42;;;;;;;41.37;32.30;;;;;;;15.96;100.00;99827.66;5010133;28;20801;-62
2022/09/18 09:20:32;;;;;;;38.10;30.87;;;;;;;15.90;100.00;99822.69;4993352;28;20284;-61
2022/09/18 09:23:21;;;;;;;42.43;32.60;;;;;;;15.94;100.00;99823.38;5048075;28;20306;-61
2022/09/18 09:29:45;;;;;;;14.67;10.07;;;;;;;15.91;100.00;99839.31;5047540;28;20295;-62
2022/09/18 09:32:43;;;;;;;19.20;8.87;;;;;;;15.88;100.00;99829.78;5022643;28;20299;-61
2022/09/18 09:35:29;;;;;;;11.83;7.83;;;;;;;15.80;100.00;99831.91;5009806;28;20295;-61
2022/09/18 09:38:15;;;;;;;10.27;7.83;;;;;;;15.85;100.00;99834.31;5041658;28;20577;-62
2022/09/18 09:46:59;;;;;;;11.70;8.50;;;;;;;15.82;100.00;99813.38;5047731;28;20276;-61
2022/09/18 09:49:56;;;;;;;14.33;8.30;;;;;;;15.77;100.00;99815.38;5048636;28;20287;-61
2022/09/18 09:52:47;;;;;;;15.57;8.67;;;;;;;15.78;100.00;99825.00;5021644;28;20286;-59
2022/09/18 09:55:36;;;;;;;15.50;10.37;;;;;;;15.74;100.00;99826.91;4985606;28;20347;-60
2022/09/18 09:58:47;;;;;;;11.70;8.85;;;;;;;15.70;100.00;99836.75;5048845;28;20349;-59
2022/09/18 10:04:39;;;;;;;10.73;7.53;;;;;;;15.67;100.00;99843.88;5070419;28;20302;-59
2022/09/18 10:07:20;;;;;;;10.53;7.37;;;;;;;15.67;100.00;99841.25;5052232;28;20292;-59
2022/09/18 10:10:22;;;;;;;8.30;6.30;;;;;;;15.64;100.00;99830.84;5057069;28;20286;-61
2022/09/18 10:13:04;;;;;;;8.13;5.77;;;;;;;15.50;100.00;99824.41;5090409;28;20800;-60
2022/09/18 10:15:54;;;;;;;7.73;5.80;;;;;;;15.54;100.00;99840.91;5090651;28;20369;-60
2022/09/18 10:18:35;;;;;;;11.30;6.97;;;;;;;15.62;100.00;99870.41;5093026;28;20307;-60
2022/09/18 10:21:45;;;;;;;13.02;7.35;;;;;;;15.59;100.00;99859.16;5092382;28;20151;-59
2022/09/18 10:24:50;;;;;;;11.77;5.87;;;;;;;15.40;100.00;99828.38;5094136;28;20476;-60
2022/09/18 10:27:29;;;;;;;6.65;5.47;;;;;;;15.54;100.00;99857.56;5093526;28;20283;-60
2022/09/18 10:30:02;;;;;;;5.90;4.70;;;;;;;15.51;100.00;99865.59;5084803;28;20370;-60
2022/09/18 10:32:40;;;;;;;7.40;4.97;;;;;;;15.51;100.00;99868.25;5094423;28;20310;-60
2022/09/18 10:35:42;;;;;;;6.43;4.50;;;;;;;15.53;100.00;99863.78;5091397;28;20294;-60
2022/09/18 10:38:53;;;;;;;6.37;4.93;;;;;;;15.50;100.00;99877.06;5091842;28;20291;-60
2022/09/18 10:41:47;;;;;;;7.77;4.87;;;;;;;15.20;100.00;99825.72;5019979;28;20302;-60
2022/09/18 10:44:38;;;;;;;7.57;4.10;;;;;;;15.46;100.00;99864.94;5093103;28;20331;-62
2022/09/18 10:47:44;;;;;;;10.23;5.53;;;;;;;15.46;100.00;99854.41;5093408;28;20332;-60
2022/09/18 10:50:24;;;;;;;8.57;4.77;;;;;;;15.44;100.00;99851.00;5074405;28;20369;-60
2022/09/18 10:53:41;;;;;;;8.50;4.50;;;;;;;14.94;100.00;99761.91;5092340;28;20494;-60
2022/09/18 10:59:42;;;;;;;10.47;5.90;;;;;;;15.44;100.00;99829.09;5091604;28;20040;-61
2022/09/18 11:02:24;;;;;;;13.17;5.83;;;;;;;15.41;100.00;99822.16;5091981;28;20328;-62
2022/09/18 11:05:08;;;;;;;7.50;5.70;;;;;;;15.45;100.00;99831.66;5090970;28;20948;-62
2022/09/18 11:07:51;;;;;;;9.27;6.20;;;;;;;15.46;100.00;99832.50;5078084;28;20286;-60
2022/09/18 11:10:35;;;;;;;9.73;6.77;;;;;;;15.41;100.00;99826.59;5026588;28;20330;-61
2022/09/18 11:13:33;;;;;;;9.27;7.13;;;;;;;15.45;100.00;99846.56;5065839;28;20302;-59
2022/09/18 11:16:28;;;;;;;12.67;7.87;;;;;;;15.40;100.00;99828.38;5092820;28;20285;-61
2022/09/18 11:19:32;;;;;;;12.47;6.33;;;;;;;15.43;100.00;99830.88;5091396;28;20289;-60
2022/09/18 11:22:51;;;;;;;7.67;6.00;;;;;;;15.39;100.00;99820.53;5093375;28;20278;-60
2022/09/18 11:25:31;;;;;;;10.85;6.53;;;;;;;15.42;100.00;99831.75;5092477;28;20301;-61
2022/09/18 11:28:29;;;;;;;9.23;6.97;;;;;;;15.41;100.00;99830.06;5093961;28;20413;-61
2022/09/18 11:31:12;;;;;;;9.70;6.17;;;;;;;15.40;100.00;99833.63;5091801;28;20301;-60
2022/09/18 11:34:04;;;;;;;13.50;6.28;;;;;;;15.37;100.00;99823.22;5091334;28;20313;-59
2022/09/18 11:36:59;;;;;;;10.90;7.90;;;;;;;15.37;100.00;99823.22;5093004;28;21144;-59
2022/09/18 11:40:03;;;;;;;9.57;7.13;;;;;;;15.37;100.00;99823.22;5091956;28;20372;-61
2022/09/18 11:43:12;;;;;;;13.83;7.27;;;;;;;15.28;100.00;99813.09;5032101;28;20340;-60
2022/09/18 11:46:26;;;;;;;12.37;8.13;;;;;;;15.38;100.00;99818.81;5030342;28;20276;-62
2022/09/18 11:49:18;;;;;;;8.93;6.90;;;;;;;15.34;100.00;99807.56;5029323;28;20475;-61
2022/09/18 11:52:15;;;;;;;12.82;8.38;;;;;;;15.40;100.00;99807.31;5028650;28;20289;-60
2022/09/18 11:55:01;;;;;;;12.30;7.67;;;;;;;15.41;100.00;99809.00;5028092;28;20135;-60
2022/09/18 11:57:48;;;;;;;11.80;7.10;;;;;;;15.43;100.00;99804.53;5015445;28;20301;-60
2022/09/18 12:00:45;;;;;;;12.17;7.80;;;;;;;15.22;100.00;99760.72;5030419;28;20308;-62
2022/09/18 12:03:36;;;;;;;13.33;7.20;;;;;;;15.42;100.00;99784.38;5030042;28;20448;-62
2022/09/18 12:12:16;;;;;;;11.90;8.67;;;;;;;15.43;100.00;99770.31;5030547;28;20493;-61
2022/09/18 12:15:10;;;;;;;12.67;8.43;;;;;;;15.34;100.00;99749.66;5029669;28;20306;-60
2022/09/18 12:17:54;;;;;;;11.47;8.97;;;;;;;15.42;100.00;99752.78;5029521;28;20293;-61
2022/09/18 12:20:57;;;;;;;11.30;8.47;;;;;;;15.44;100.00;99750.09;5057642;28;21279;-60
2022/09/18 12:23:57;;;;;;;13.73;8.67;;;;;;;15.45;100.00;99750.03;5066374;28;20275;-61
2022/09/18 12:26:52;;;;;;;10.73;7.43;;;;;;;15.45;100.00;99747.41;5068089;28;20283;-60
2022/09/18 12:29:57;;;;;;;13.23;8.40;;;;;;;15.46;100.00;99743.84;5041409;28;20071;-59
2022/09/18 12:33:10;;;;;;;11.73;8.07;;;;;;;15.46;100.00;99743.84;5063545;28;20335;-60
2022/09/18 12:36:28;;;;;;;10.90;8.20;;;;;;;15.45;100.00;99742.16;5066982;28;20373;-60
2022/09/18 12:40:01;;;;;;;10.10;7.70;;;;;;;15.49;100.00;99743.69;5068286;28;20348;-60
2022/09/18 12:42:48;;;;;;;9.77;7.57;;;;;;;15.48;100.00;99736.72;5053290;28;20356;-60
2022/09/18 12:45:57;;;;;;;11.00;7.83;;;;;;;15.37;100.00;99712.66;5065534;28;20309;-60
2022/09/18 12:52:13;;;;;;;12.07;8.67;;;;;;;15.47;100.00;99728.88;5055968;28;20377;-60
2022/09/18 12:55:35;;;;;;;12.10;8.07;;;;;;;15.48;100.00;99726.19;5067516;28;20315;-60
2022/09/18 12:58:52;;;;;;;9.30;7.73;;;;;;;15.43;100.00;99715.03;5006456;28;20289;-59
2022/09/18 13:05:06;;;;;;;13.87;9.50;;;;;;;15.46;100.00;99717.50;5009973;28;20301;-60
2022/09/18 13:07:51;;;;;;;11.83;9.37;;;;;;;15.35;100.00;99696.09;5009392;28;20304;-60
2022/09/18 13:10:34;;;;;;;12.43;8.73;;;;;;;15.37;100.00;99703.91;5008988;28;20289;-60
2022/09/18 13:13:32;;;;;;;11.37;7.63;;;;;;;15.47;100.00;99706.03;4968539;28;20358;-60
2022/09/18 13:16:33;;;;;;;14.10;8.13;;;;;;;15.46;100.00;99706.97;5008674;28;20294;-60
2022/09/18 13:19:33;;;;;;;9.73;7.67;;;;;;;15.51;100.00;99706.78;4960457;28;20311;-60
2022/09/18 13:22:18;;;;;;;8.90;5.38;;;;;;;15.50;100.00;99708.56;5008373;28;20904;-61
2022/09/18 13:24:56;;;;;;;8.07;7.20;;;;;;;15.50;100.00;99698.03;5008627;28;20054;-60
2022/09/18 13:27:29;;;;;;;7.50;6.27;;;;;;;15.47;100.00;99692.88;5009327;28;20285;-60
2022/09/18 13:30:31;;;;;;;6.63;5.60;;;;;;;15.52;100.00;99698.81;5009306;28;20301;-60
2022/09/18 13:36:45;;;;;;;11.40;8.02;;;;;;;15.49;100.00;99691.03;5050078;28;20295;-60
2022/09/18 13:39:40;;;;;;;6.27;4.80;;;;;;;15.39;100.00;99668.69;5021885;28;20077;-58
2022/09/18 13:45:30;;;;;;;5.93;4.80;;;;;;;15.17;100.00;99615.31;5046555;28;20591;-60
2022/09/18 13:48:39;;;;;;;7.23;4.97;;;;;;;15.47;100.00;99661.28;5052483;28;20284;-59
2022/09/18 13:51:21;;;;;;;6.67;4.47;;;;;;;15.46;100.00;99653.47;5055723;28;20330;-61
2022/09/18 13:54:33;;;;;;;7.50;5.60;;;;;;;15.47;100.00;99661.28;5047584;28;20343;-60
2022/09/18 13:57:31;;;;;;;9.23;5.93;;;;;;;15.44;100.00;99645.63;5045241;28;20331;-58
2022/09/18 14:00:45;;;;;;;6.07;4.90;;;;;;;15.49;100.00;99643.63;5047073;28;20552;-59
2022/09/18 14:03:44;;;;;;;5.95;4.85;;;;;;;15.48;100.00;99641.94;5046957;28;20601;-60
2022/09/18 14:06:50;;;;;;;8.68;5.43;;;;;;;15.48;100.00;99636.69;5046249;28;20053;-61
2022/09/18 14:09:54;;;;;;;11.90;5.57;;;;;;;15.47;100.00;99613.91;5059286;28;20056;-59
2022/09/18 14:12:45;;;;;;;6.83;4.20;;;;;;;15.26;100.00;99584.16;5086868;28;20346;-59
2022/09/18 14:15:27;;;;;;;5.43;4.00;;;;;;;15.39;100.00;99613.41;5068540;28;20290;-58
2022/09/18 14:18:21;;;;;;;6.37;3.63;;;;;;;15.47;100.00;99624.41;5055038;28;20283;-59
2022/09/18 14:21:23;;;;;;;5.60;3.42;;;;;;;15.45;100.00;99615.78;5053079;28;20343;-62
2022/09/18 14:24:31;;;;;;;6.70;3.90;;;;;;;15.49;100.00;99625.22;5085670;28;20135;-58
2022/09/18 14:27:52;;;;;;;5.57;3.37;;;;;;;15.50;100.00;99620.78;5086677;28;20302;-60
2022/09/18 14:30:34;;;;;;;4.53;3.47;;;;;;;15.50;100.00;99613.78;5025085;28;20299;-62
2022/09/18 14:33:24;;;;;;;6.43;3.50;;;;;;;15.49;100.00;99609.41;5024631;28;20513;-60
2022/09/18 14:36:45;;;;;;;5.50;3.80;;;;;;;15.49;100.00;99606.78;5024989;28;20279;-59
2022/09/18 14:39:52;;;;;;;11.67;4.60;;;;;;;15.49;100.00;99601.50;5024864;28;20295;-60
2022/09/18 14:42:51;;;;;;;;;;;;;;;15.52;100.00;99596.13;5025409;28;20285;-61
2022/09/18 14:45:37;;;;;;;6.00;3.90;;;;;;;15.50;100.00;99590.06;5024869;28;19925;-60
2022/09/18 14:48:28;;;;;;;33.73;5.83;;;;;;;15.48;100.00;99578.75;5024254;28;20381;-59
2022/09/18 14:51:21;;;;;;;16.73;5.17;;;;;;;15.49;100.00;99580.44;5024625;28;20331;-60